createdAt,value
2023-03-03T00:00:51.077Z,4.80
2023-03-03T00:03:23.703Z,4.80
2023-03-03T00:05:51.686Z,4.80
2023-03-03T00:08:20.884Z,4.70
2023-03-03T00:10:48.015Z,4.70
2023-03-03T00:13:27.150Z,4.60
2023-03-03T00:16:36.570Z,4.60
2023-03-03T00:19:04.742Z,4.60
2023-03-03T00:21:33.454Z,4.60
2023-03-03T00:24:19.544Z,4.50
2023-03-03T00:26:57.787Z,4.50
2023-03-03T00:29:36.047Z,4.50
2023-03-03T00:32:15.272Z,4.40
2023-03-03T00:34:43.716Z,4.40
2023-03-03T00:37:26.804Z,4.40
2023-03-03T00:39:54.171Z,4.30
2023-03-03T00:42:21.228Z,4.30
2023-03-03T00:45:01.156Z,4.30
2023-03-03T00:47:46.524Z,4.30
2023-03-03T00:50:25.592Z,4.30
2023-03-03T00:53:19.812Z,4.30
2023-03-03T00:55:49.090Z,4.30
2023-03-03T00:58:16.388Z,4.20
2023-03-03T01:00:43.571Z,4.20
2023-03-03T01:03:15.579Z,4.20
2023-03-03T01:05:42.703Z,4.20
2023-03-03T01:08:10.321Z,4.20
2023-03-03T01:10:41.904Z,4.10
2023-03-03T01:13:09.952Z,4.10
2023-03-03T01:15:38.709Z,4.10
2023-03-03T01:18:06.461Z,4.10
2023-03-03T01:20:33.616Z,4.00
2023-03-03T01:23:00.876Z,4.00
2023-03-03T01:25:28.102Z,4.00
2023-03-03T01:27:55.271Z,4.00
2023-03-03T01:30:23.293Z,4.00
2023-03-03T01:32:50.540Z,4.00
2023-03-03T01:35:18.443Z,4.00
2023-03-03T01:37:45.590Z,4.00
2023-03-03T01:40:22.077Z,4.00
2023-03-03T01:42:49.270Z,4.00
2023-03-03T01:45:17.930Z,3.90
2023-03-03T01:48:10.337Z,4.00
2023-03-03T01:50:52.031Z,3.90
2023-03-03T01:53:23.858Z,3.90
2023-03-03T01:55:53.122Z,3.90
2023-03-03T01:58:27.954Z,3.90
2023-03-03T02:01:02.425Z,3.80
2023-03-03T02:03:30.945Z,3.80
2023-03-03T02:06:11.289Z,3.80
2023-03-03T02:09:19.649Z,3.80
2023-03-03T02:11:49.083Z,3.70
2023-03-03T02:14:16.237Z,3.80
2023-03-03T02:16:43.582Z,3.70
2023-03-03T02:19:23.351Z,3.70
2023-03-03T02:21:50.504Z,3.70
2023-03-03T02:24:20.620Z,3.60
2023-03-03T02:26:48.656Z,3.60
2023-03-03T02:29:15.732Z,3.60
2023-03-03T02:31:44.277Z,3.60
2023-03-03T02:34:11.526Z,3.60
2023-03-03T02:36:39.743Z,3.60
2023-03-03T02:39:18.525Z,3.60
2023-03-03T02:41:45.553Z,3.60
2023-03-03T02:44:17.099Z,3.60
2023-03-03T02:46:46.474Z,3.60
2023-03-03T02:49:16.220Z,3.50
2023-03-03T02:51:43.886Z,3.50
2023-03-03T02:54:12.439Z,3.50
2023-03-03T02:56:39.582Z,3.50
2023-03-03T02:59:07.549Z,3.50
2023-03-03T03:01:37.252Z,3.50
2023-03-03T03:04:14.001Z,3.40
2023-03-03T03:06:41.554Z,3.40
2023-03-03T03:09:10.017Z,3.40
2023-03-03T03:11:38.092Z,3.40
2023-03-03T03:14:07.633Z,3.40
2023-03-03T03:16:34.936Z,3.40
2023-03-03T03:19:03.888Z,3.30
2023-03-03T03:21:31.744Z,3.30
2023-03-03T03:23:59.083Z,3.30
2023-03-03T03:26:26.347Z,3.30
2023-03-03T03:28:54.067Z,3.30
2023-03-03T03:31:21.595Z,3.30
2023-03-03T03:33:49.172Z,3.20
2023-03-03T03:36:17.318Z,3.20
2023-03-03T03:38:44.661Z,3.20
2023-03-03T03:41:13.014Z,3.20
2023-03-03T03:43:40.297Z,3.10
2023-03-03T03:46:07.793Z,3.20
2023-03-03T03:48:36.110Z,3.10
2023-03-03T03:51:03.765Z,3.10
2023-03-03T03:53:31.025Z,3.10
2023-03-03T03:55:58.176Z,3.10
2023-03-03T03:58:25.334Z,3.10
2023-03-03T04:00:52.486Z,3.10
2023-03-03T04:03:19.643Z,3.10
2023-03-03T04:05:46.897Z,3.00
2023-03-03T04:08:13.977Z,3.00
2023-03-03T04:10:41.125Z,3.00
2023-03-03T04:13:08.232Z,3.00
2023-03-03T04:15:35.467Z,3.00
2023-03-03T04:18:02.801Z,3.00
2023-03-03T04:20:30.001Z,3.00
2023-03-03T04:22:57.264Z,3.00
2023-03-03T04:25:24.784Z,2.90
2023-03-03T04:27:52.992Z,2.90
2023-03-03T04:30:20.247Z,2.90
2023-03-03T04:32:47.847Z,2.90
2023-03-03T04:35:14.896Z,2.90
2023-03-03T04:37:42.057Z,2.90
2023-03-03T04:40:10.277Z,2.90
2023-03-03T04:42:37.466Z,2.90
2023-03-03T04:45:05.827Z,2.80
2023-03-03T04:47:33.181Z,2.80
2023-03-03T04:50:00.941Z,2.80
2023-03-03T04:52:28.506Z,2.80
2023-03-03T04:54:55.945Z,2.80
2023-03-03T04:57:23.020Z,2.80
2023-03-03T04:59:50.252Z,2.80
2023-03-03T05:02:17.934Z,2.80
2023-03-03T05:04:45.176Z,2.70
2023-03-03T05:07:12.271Z,2.80
2023-03-03T05:09:39.454Z,2.80
2023-03-03T05:12:06.799Z,2.80
2023-03-03T05:14:33.925Z,2.80
2023-03-03T05:17:01.055Z,2.80
2023-03-03T05:19:28.390Z,2.70
2023-03-03T05:21:55.532Z,2.70
2023-03-03T05:24:22.680Z,2.80
2023-03-03T05:26:49.836Z,2.80
2023-03-03T05:29:16.983Z,2.80
2023-03-03T05:31:45.677Z,2.80
2023-03-03T05:34:12.936Z,2.80
2023-03-03T05:36:40.091Z,2.80
2023-03-03T05:39:07.381Z,2.90
2023-03-03T05:41:36.987Z,2.80
2023-03-03T05:44:04.728Z,2.90
2023-03-03T05:46:32.077Z,2.90
2023-03-03T05:48:59.211Z,2.90
2023-03-03T05:51:26.473Z,3.00
2023-03-03T05:53:56.271Z,3.00
2023-03-03T05:56:23.634Z,3.10
2023-03-03T05:58:50.754Z,3.10
2023-03-03T06:01:17.922Z,3.10
2023-03-03T06:03:45.076Z,3.10
2023-03-03T06:06:14.181Z,3.10
2023-03-03T06:08:41.344Z,3.20
2023-03-03T06:11:08.497Z,3.20
2023-03-03T06:13:35.563Z,3.30
2023-03-03T06:16:03.118Z,3.30
2023-03-03T06:18:30.419Z,3.40
2023-03-03T06:20:57.567Z,3.40
2023-03-03T06:23:24.703Z,3.40
2023-03-03T06:25:53.003Z,3.40
2023-03-03T06:28:20.165Z,3.50
2023-03-03T06:30:47.506Z,3.60
2023-03-03T06:33:14.680Z,3.80
2023-03-03T06:35:41.799Z,3.90
2023-03-03T06:38:08.949Z,4.10
2023-03-03T06:40:36.069Z,4.30
2023-03-03T06:43:04.387Z,4.40
2023-03-03T06:45:31.484Z,4.50
2023-03-03T06:47:58.574Z,4.70
2023-03-03T06:50:25.680Z,4.80
2023-03-03T06:53:05.209Z,4.80
2023-03-03T06:55:32.275Z,4.80
2023-03-03T06:57:59.943Z,4.80
2023-03-03T07:00:30.859Z,5.00
2023-03-03T07:03:02.005Z,5.10
2023-03-03T07:05:29.875Z,5.30
2023-03-03T07:07:57.651Z,5.40
2023-03-03T07:10:30.342Z,5.60
2023-03-03T07:13:06.990Z,5.80
2023-03-03T07:15:35.500Z,5.80
2023-03-03T07:18:04.641Z,5.90
2023-03-03T07:20:39.701Z,5.90
2023-03-03T07:23:23.352Z,5.90
2023-03-03T07:25:51.232Z,5.80
2023-03-03T07:28:27.911Z,5.70
2023-03-03T07:30:57.256Z,5.50
2023-03-03T07:33:35.111Z,5.40
2023-03-03T07:36:04.077Z,5.30
2023-03-03T07:38:53.782Z,5.20
2023-03-03T07:41:23.586Z,5.20
2023-03-03T07:43:55.044Z,5.00
2023-03-03T07:46:35.134Z,5.00
2023-03-03T07:49:16.268Z,4.90
2023-03-03T07:51:43.599Z,4.80
2023-03-03T07:54:31.960Z,4.80
2023-03-03T07:57:20.626Z,4.70
2023-03-03T07:59:53.848Z,4.70
2023-03-03T08:02:23.666Z,4.70
2023-03-03T08:04:52.765Z,4.80
2023-03-03T08:07:22.608Z,4.80
2023-03-03T08:09:59.592Z,4.90
2023-03-03T08:12:42.047Z,5.00
2023-03-03T08:15:16.006Z,5.10
2023-03-03T08:17:45.524Z,5.20
2023-03-03T08:20:31.375Z,5.20
2023-03-03T08:22:58.546Z,5.30
2023-03-03T08:25:25.725Z,5.20
2023-03-03T08:27:52.880Z,5.30
2023-03-03T08:30:19.990Z,5.50
2023-03-03T08:32:47.223Z,5.50
2023-03-03T08:35:14.435Z,5.60
2023-03-03T08:37:41.522Z,5.70
2023-03-03T08:40:09.450Z,5.90
2023-03-03T08:42:36.610Z,6.00
2023-03-03T08:45:03.935Z,6.20
2023-03-03T08:47:31.052Z,6.20
2023-03-03T08:49:58.161Z,6.20
2023-03-03T08:52:26.669Z,6.30
2023-03-03T08:54:54.333Z,6.40
2023-03-03T08:57:21.490Z,6.50
2023-03-03T08:59:48.649Z,6.50
2023-03-03T09:02:17.228Z,6.60
2023-03-03T09:04:44.439Z,6.70
2023-03-03T09:07:11.684Z,6.70
2023-03-03T09:09:39.786Z,6.70
2023-03-03T09:12:39.229Z,6.80
2023-03-03T09:15:20.384Z,6.80
2023-03-03T09:17:48.396Z,6.90
2023-03-03T09:20:38.844Z,6.90
2023-03-03T09:23:24.065Z,6.90
2023-03-03T09:25:52.794Z,7.00
2023-03-03T09:28:19.925Z,7.00
2023-03-03T09:30:50.214Z,7.20
2023-03-03T09:33:29.433Z,7.40
2023-03-03T09:36:22.319Z,7.50
2023-03-03T09:38:49.447Z,7.70
2023-03-03T09:41:28.578Z,7.80
2023-03-03T09:44:12.236Z,8.00
2023-03-03T09:46:54.405Z,8.00
2023-03-03T09:49:44.878Z,8.10
2023-03-03T09:52:32.840Z,8.10
2023-03-03T09:55:40.177Z,8.20
2023-03-03T09:58:45.815Z,8.20
2023-03-03T10:01:42.807Z,8.30
2023-03-03T10:04:42.680Z,8.30
2023-03-03T10:07:26.088Z,8.30
2023-03-03T10:10:02.021Z,8.00
2023-03-03T10:12:53.802Z,8.00
2023-03-03T10:15:32.500Z,8.00
2023-03-03T10:18:11.677Z,7.90
2023-03-03T10:20:49.478Z,7.80
2023-03-03T10:23:52.612Z,7.80
2023-03-03T10:27:01.309Z,7.80
2023-03-03T10:29:41.162Z,7.70
2023-03-03T10:32:49.879Z,7.80
2023-03-03T10:35:41.903Z,7.80
2023-03-03T10:38:26.896Z,8.10
2023-03-03T10:41:20.781Z,8.30
2023-03-03T10:44:09.689Z,8.30
2023-03-03T10:46:55.415Z,8.40
2023-03-03T10:49:43.935Z,8.50
2023-03-03T10:52:26.810Z,8.60
2023-03-03T10:54:56.814Z,8.50
2023-03-03T10:57:36.966Z,8.50
2023-03-03T11:00:28.708Z,8.50
2023-03-03T11:03:18.805Z,8.60
2023-03-03T11:05:58.971Z,8.70
2023-03-03T11:08:38.238Z,8.90
2023-03-03T11:11:31.311Z,8.90
2023-03-03T11:14:15.323Z,9.00
2023-03-03T11:16:58.884Z,9.10
2023-03-03T11:19:26.143Z,9.20
2023-03-03T11:22:15.084Z,9.30
2023-03-03T11:25:06.963Z,9.40
2023-03-03T11:27:37.077Z,9.50
2023-03-03T11:30:41.495Z,9.60
2023-03-03T11:33:34.636Z,9.70
2023-03-03T11:36:23.403Z,9.70
2023-03-03T11:39:10.826Z,9.70
2023-03-03T11:42:06.894Z,9.70
2023-03-03T11:44:49.894Z,9.70
2023-03-03T11:47:23.510Z,9.80
2023-03-03T11:49:59.878Z,9.80
2023-03-03T11:52:33.020Z,9.90
2023-03-03T11:55:09.218Z,9.90
2023-03-03T11:57:54.632Z,9.90
2023-03-03T12:00:40.174Z,10.00
2023-03-03T12:03:25.375Z,10.00
2023-03-03T12:06:03.075Z,10.00
2023-03-03T12:08:48.776Z,10.10
2023-03-03T12:11:26.750Z,10.20
2023-03-03T12:14:08.609Z,10.20
2023-03-03T12:16:44.535Z,10.30
2023-03-03T12:19:36.454Z,10.40
2023-03-03T12:22:31.858Z,10.50
2023-03-03T12:25:11.414Z,10.60
2023-03-03T12:27:50.358Z,10.60
2023-03-03T12:30:55.106Z,10.70
2023-03-03T12:33:31.096Z,10.70
2023-03-03T12:36:12.142Z,10.80
2023-03-03T12:39:06.366Z,10.80
2023-03-03T12:42:00.096Z,10.80
2023-03-03T12:44:46.643Z,10.80
2023-03-03T12:47:23.348Z,10.90
2023-03-03T12:50:09.356Z,11.00
2023-03-03T12:52:48.424Z,10.90
2023-03-03T12:55:38.747Z,10.90
2023-03-03T12:58:17.595Z,10.90
2023-03-03T13:00:59.220Z,10.90
2023-03-03T13:03:55.957Z,11.00
2023-03-03T13:06:36.125Z,11.00
2023-03-03T13:09:13.397Z,11.00
2023-03-03T13:11:58.771Z,11.00
2023-03-03T13:14:40.552Z,11.10
2023-03-03T13:17:14.788Z,11.10
2023-03-03T13:19:51.984Z,11.20
2023-03-03T13:22:46.799Z,11.30
2023-03-03T13:25:34.495Z,11.30
2023-03-03T13:28:28.587Z,11.40
2023-03-03T13:31:08.489Z,11.40
2023-03-03T13:33:36.036Z,11.40
2023-03-03T13:36:05.998Z,11.40
2023-03-03T13:38:42.284Z,11.40
2023-03-03T13:41:32.278Z,11.50
2023-03-03T13:44:09.807Z,11.50
2023-03-03T13:46:40.789Z,11.50
2023-03-03T13:49:26.573Z,11.60
2023-03-03T13:52:03.449Z,11.60
2023-03-03T13:54:48.077Z,11.60
2023-03-03T13:57:43.600Z,11.60
2023-03-03T14:00:18.527Z,11.60
2023-03-03T14:03:10.495Z,11.60
2023-03-03T14:06:00.715Z,11.60
2023-03-03T14:09:25.305Z,11.70
2023-03-03T14:12:08.931Z,11.60
2023-03-03T14:14:55.186Z,11.50
2023-03-03T14:17:57.916Z,11.50
2023-03-03T14:20:37.842Z,11.50
2023-03-03T14:23:32.339Z,11.50
2023-03-03T14:26:07.573Z,11.50
2023-03-03T14:28:45.657Z,11.40
2023-03-03T14:31:17.304Z,11.40
2023-03-03T14:33:57.545Z,11.30
2023-03-03T14:36:45.269Z,11.30
2023-03-03T14:39:32.076Z,11.30
2023-03-03T14:42:00.640Z,11.30
2023-03-03T14:44:35.379Z,11.20
2023-03-03T14:47:20.392Z,11.20
2023-03-03T14:49:48.641Z,11.20
2023-03-03T14:52:15.725Z,11.20
2023-03-03T14:54:48.340Z,11.10
2023-03-03T14:57:41.812Z,11.10
2023-03-03T15:00:35.271Z,11.00
2023-03-03T15:03:22.714Z,11.00
2023-03-03T15:05:52.916Z,11.10
2023-03-03T15:08:33.688Z,11.00
2023-03-03T15:11:32.926Z,10.90
2023-03-03T15:14:14.877Z,10.90
2023-03-03T15:16:45.089Z,10.80
2023-03-03T15:19:27.657Z,10.80
2023-03-03T15:22:14.610Z,10.80
2023-03-03T15:24:53.907Z,10.70
2023-03-03T15:27:33.695Z,10.70
2023-03-03T15:30:15.120Z,10.60
2023-03-03T15:32:54.585Z,10.60
2023-03-03T15:35:33.600Z,10.60
2023-03-03T15:38:24.213Z,10.50
2023-03-03T15:41:12.829Z,10.50
2023-03-03T15:43:49.262Z,10.50
2023-03-03T15:46:28.835Z,10.40
2023-03-03T15:49:20.335Z,10.40
2023-03-03T15:52:02.800Z,10.30
2023-03-03T15:54:47.100Z,10.30
2023-03-03T15:57:41.270Z,10.20
2023-03-03T16:00:31.894Z,10.20
2023-03-03T16:03:05.388Z,10.20
2023-03-03T16:05:49.341Z,10.10
2023-03-03T16:08:48.013Z,10.00
2023-03-03T16:11:28.383Z,10.00
2023-03-03T16:14:17.325Z,10.00
2023-03-03T16:17:04.857Z,9.90
2023-03-03T16:20:10.194Z,9.80
2023-03-03T16:22:37.454Z,9.80
2023-03-03T16:25:07.661Z,9.70
2023-03-03T16:27:53.946Z,9.70
2023-03-03T16:30:58.462Z,9.60
2023-03-03T16:33:28.365Z,9.50
2023-03-03T16:36:02.558Z,9.50
2023-03-03T16:38:40.066Z,9.40
2023-03-03T16:41:24.760Z,9.30
2023-03-03T16:44:06.858Z,9.20
2023-03-03T16:46:38.870Z,9.20
2023-03-03T16:49:14.737Z,9.10
2023-03-03T16:51:51.201Z,9.10
2023-03-03T16:54:37.245Z,9.00
2023-03-03T16:57:41.894Z,8.90
2023-03-03T17:00:18.086Z,8.80
2023-03-03T17:02:54.021Z,8.70
2023-03-03T17:05:36.205Z,8.60
2023-03-03T17:08:13.026Z,8.50
2023-03-03T17:10:48.643Z,8.50
2023-03-03T17:13:34.862Z,8.40
2023-03-03T17:16:20.710Z,8.40
2023-03-03T17:19:28.080Z,8.30
2023-03-03T17:22:07.476Z,8.20
2023-03-03T17:24:52.770Z,8.20
2023-03-03T17:28:11.146Z,8.10
2023-03-03T17:30:56.686Z,8.10
2023-03-03T17:33:40.031Z,8.00
2023-03-03T17:36:22.731Z,7.90
2023-03-03T17:39:20.036Z,7.90
2023-03-03T17:42:09.524Z,7.80
2023-03-03T17:45:10.185Z,7.70
2023-03-03T17:47:39.983Z,7.70
2023-03-03T17:51:05.459Z,7.60
2023-03-03T17:53:55.076Z,7.60
2023-03-03T17:56:29.551Z,7.50
2023-03-03T17:58:59.437Z,7.50
2023-03-03T18:01:40.938Z,7.40
2023-03-03T18:04:10.790Z,7.40
2023-03-03T18:06:58.556Z,7.30
2023-03-03T18:09:54.623Z,7.30
2023-03-03T18:12:59.355Z,7.20
2023-03-03T18:15:31.245Z,7.20
2023-03-03T18:18:04.255Z,7.20
2023-03-03T18:20:39.809Z,7.10
2023-03-03T18:23:29.774Z,7.10
2023-03-03T18:26:00.692Z,7.10
2023-03-03T18:28:45.686Z,7.10
2023-03-03T18:31:26.277Z,7.00
2023-03-03T18:34:26.828Z,7.00
2023-03-03T18:37:00.804Z,7.00
2023-03-03T18:39:41.001Z,7.00
2023-03-03T18:42:17.091Z,7.00
2023-03-03T18:44:44.844Z,7.00
2023-03-03T18:47:12.512Z,7.00
2023-03-03T18:49:52.627Z,7.00
2023-03-03T18:52:28.939Z,6.90
2023-03-03T18:55:03.095Z,6.90
2023-03-03T18:57:30.853Z,6.90
2023-03-03T19:00:10.392Z,6.80
2023-03-03T19:02:46.324Z,6.80
2023-03-03T19:05:29.146Z,6.70
2023-03-03T19:08:14.953Z,6.70
2023-03-03T19:10:53.041Z,6.70
2023-03-03T19:13:35.268Z,6.60
2023-03-03T19:16:04.433Z,6.60
2023-03-03T19:18:35.578Z,6.50
2023-03-03T19:21:20.259Z,6.50
2023-03-03T19:23:54.726Z,6.50
2023-03-03T19:26:24.632Z,6.40
2023-03-03T19:29:19.488Z,6.40
2023-03-03T19:32:20.480Z,6.40
2023-03-03T19:35:05.511Z,6.40
2023-03-03T19:38:11.421Z,6.30
2023-03-03T19:40:41.507Z,6.20
2023-03-03T19:43:45.300Z,6.20
2023-03-03T19:46:41.062Z,6.20
2023-03-03T19:49:28.238Z,6.20
2023-03-03T19:52:07.289Z,6.20
2023-03-03T19:54:59.013Z,6.10
2023-03-03T19:57:35.572Z,6.10
2023-03-03T20:00:09.466Z,6.10
2023-03-03T20:02:55.327Z,6.10
2023-03-03T20:05:42.873Z,6.00
2023-03-03T20:08:32.456Z,6.00
2023-03-03T20:11:25.486Z,6.00
2023-03-03T20:13:57.337Z,5.90
2023-03-03T20:16:34.928Z,5.90
2023-03-03T20:19:27.244Z,5.90
2023-03-03T20:22:14.056Z,5.80
2023-03-03T20:25:00.102Z,5.80
2023-03-03T20:27:50.028Z,5.70
2023-03-03T20:30:22.249Z,5.70
2023-03-03T20:32:49.332Z,5.60
2023-03-03T20:35:29.869Z,5.50
2023-03-03T20:38:15.797Z,5.50
2023-03-03T20:40:43.043Z,5.40
2023-03-03T20:43:57.645Z,5.40
2023-03-03T20:46:44.312Z,5.30
2023-03-03T20:49:20.195Z,5.20
2023-03-03T20:51:53.214Z,5.20
2023-03-03T20:54:41.917Z,5.10
2023-03-03T20:57:22.343Z,5.00
2023-03-03T20:59:57.845Z,5.00
2023-03-03T21:02:36.449Z,4.90
2023-03-03T21:05:13.311Z,4.80
2023-03-03T21:07:53.422Z,4.80
2023-03-03T21:10:24.861Z,4.70
2023-03-03T21:12:57.738Z,4.60
2023-03-03T21:15:35.717Z,4.60
2023-03-03T21:18:20.895Z,4.50
2023-03-03T21:20:48.026Z,4.50
2023-03-03T21:23:16.834Z,4.40
2023-03-03T21:25:49.244Z,4.30
2023-03-03T21:28:21.103Z,4.20
2023-03-03T21:31:13.353Z,4.20
2023-03-03T21:33:57.534Z,4.10
2023-03-03T21:36:45.986Z,4.10
2023-03-03T21:39:34.608Z,4.00
2023-03-03T21:42:08.239Z,3.90
2023-03-03T21:44:44.444Z,3.90
2023-03-03T21:47:15.010Z,3.90
2023-03-03T21:49:43.820Z,3.80
2023-03-03T21:52:12.877Z,3.80
2023-03-03T21:54:40.620Z,3.70
2023-03-03T21:57:07.778Z,3.70
2023-03-03T21:59:34.963Z,3.70
2023-03-03T22:02:02.055Z,3.70
2023-03-03T22:04:29.775Z,3.60
2023-03-03T22:06:57.311Z,3.50
2023-03-03T22:09:24.497Z,3.50
2023-03-03T22:11:54.597Z,3.40
2023-03-03T22:14:21.890Z,3.40
2023-03-03T22:16:49.082Z,3.30
2023-03-03T22:19:16.319Z,3.30
2023-03-03T22:21:43.540Z,3.30
2023-03-03T22:24:10.664Z,3.30
2023-03-03T22:26:38.199Z,3.20
2023-03-03T22:29:05.861Z,3.20
2023-03-03T22:31:33.680Z,3.10
2023-03-03T22:34:01.008Z,3.10
2023-03-03T22:36:28.166Z,3.00
2023-03-03T22:38:58.112Z,3.00
2023-03-03T22:41:26.389Z,2.90
2023-03-03T22:43:55.627Z,2.80
2023-03-03T22:46:31.592Z,2.70
2023-03-03T22:49:01.871Z,2.70
2023-03-03T22:51:28.974Z,2.70
2023-03-03T22:53:58.678Z,2.70
2023-03-03T22:56:25.922Z,2.60
2023-03-03T22:58:53.037Z,2.60
2023-03-03T23:01:20.186Z,2.50
2023-03-03T23:03:47.328Z,2.50
2023-03-03T23:06:14.580Z,2.50
2023-03-03T23:08:41.922Z,2.40
2023-03-03T23:11:10.160Z,2.40
2023-03-03T23:13:37.305Z,2.40
2023-03-03T23:16:04.924Z,2.30
2023-03-03T23:18:34.405Z,2.30
2023-03-03T23:21:01.521Z,2.30
2023-03-03T23:23:30.587Z,2.20
2023-03-03T23:25:57.852Z,2.20
2023-03-03T23:28:27.095Z,2.20
2023-03-03T23:30:54.317Z,2.10
2023-03-03T23:33:21.421Z,2.10
2023-03-03T23:35:49.906Z,2.00
2023-03-03T23:38:17.878Z,2.00
2023-03-03T23:40:46.842Z,2.00
2023-03-03T23:43:14.863Z,2.00
2023-03-03T23:45:42.106Z,2.00
2023-03-03T23:48:10.063Z,2.00
2023-03-03T23:50:38.146Z,2.00
2023-03-03T23:53:08.597Z,2.00
2023-03-03T23:55:36.431Z,1.90
2023-03-03T23:58:06.661Z,1.90
